sensor_id;sensor_type;location;lat;lon;timestamp;P1;durP1;ratioP1;P2;durP2;ratioP2
20525;SDS011;10421;49.142;9.232;2023-03-01T00:00:12;18.80;;;9.83;;
20525;SDS011;10421;49.142;9.232;2023-03-01T00:02:40;15.53;;;8.90;;
20525;SDS011;10421;49.142;9.232;2023-03-01T00:05:07;15.97;;;9.70;;
20525;SDS011;10421;49.142;9.232;2023-03-01T00:07:34;18.00;;;9.73;;
20525;SDS011;10421;49.142;9.232;2023-03-01T00:10:01;16.97;;;9.10;;
20525;SDS011;10421;49.142;9.232;2023-03-01T00:12:28;18.07;;;9.17;;
20525;SDS011;10421;49.142;9.232;2023-03-01T00:14:59;21.37;;;10.00;;
20525;SDS011;10421;49.142;9.232;2023-03-01T00:17:27;17.60;;;9.60;;
20525;SDS011;10421;49.142;9.232;2023-03-01T00:19:54;17.63;;;9.10;;
20525;SDS011;10421;49.142;9.232;2023-03-01T00:22:21;21.73;;;9.67;;
20525;SDS011;10421;49.142;9.232;2023-03-01T00:24:48;13.97;;;8.10;;
20525;SDS011;10421;49.142;9.232;2023-03-01T00:27:16;16.03;;;8.77;;
20525;SDS011;10421;49.142;9.232;2023-03-01T00:29:44;19.07;;;8.50;;
20525;SDS011;10421;49.142;9.232;2023-03-01T00:32:13;17.87;;;9.80;;
20525;SDS011;10421;49.142;9.232;2023-03-01T00:34:40;15.80;;;9.40;;
20525;SDS011;10421;49.142;9.232;2023-03-01T00:37:07;22.20;;;9.77;;
20525;SDS011;10421;49.142;9.232;2023-03-01T00:39:34;20.10;;;9.80;;
20525;SDS011;10421;49.142;9.232;2023-03-01T00:42:01;21.90;;;10.33;;
20525;SDS011;10421;49.142;9.232;2023-03-01T00:44:29;19.83;;;8.80;;
20525;SDS011;10421;49.142;9.232;2023-03-01T00:46:56;17.10;;;8.10;;
20525;SDS011;10421;49.142;9.232;2023-03-01T00:49:24;15.47;;;8.67;;
20525;SDS011;10421;49.142;9.232;2023-03-01T00:51:52;18.67;;;9.77;;
20525;SDS011;10421;49.142;9.232;2023-03-01T00:54:20;18.40;;;9.53;;
20525;SDS011;10421;49.142;9.232;2023-03-01T00:56:47;15.27;;;8.83;;
20525;SDS011;10421;49.142;9.232;2023-03-01T00:59:14;21.03;;;10.13;;
20525;SDS011;10421;49.142;9.232;2023-03-01T01:01:41;15.40;;;8.77;;
20525;SDS011;10421;49.142;9.232;2023-03-01T01:04:10;17.93;;;9.80;;
20525;SDS011;10421;49.142;9.232;2023-03-01T01:06:40;18.83;;;9.23;;
20525;SDS011;10421;49.142;9.232;2023-03-01T01:09:09;19.33;;;9.73;;
20525;SDS011;10421;49.142;9.232;2023-03-01T01:11:42;28.20;;;10.10;;
20525;SDS011;10421;49.142;9.232;2023-03-01T01:14:10;16.37;;;9.00;;
20525;SDS011;10421;49.142;9.232;2023-03-01T01:16:37;13.80;;;8.93;;
20525;SDS011;10421;49.142;9.232;2023-03-01T01:19:05;18.03;;;9.33;;
20525;SDS011;10421;49.142;9.232;2023-03-01T01:21:32;16.10;;;8.67;;
20525;SDS011;10421;49.142;9.232;2023-03-01T01:24:02;17.33;;;9.70;;
20525;SDS011;10421;49.142;9.232;2023-03-01T01:26:30;21.33;;;9.63;;
20525;SDS011;10421;49.142;9.232;2023-03-01T01:28:58;20.40;;;9.40;;
20525;SDS011;10421;49.142;9.232;2023-03-01T01:31:26;17.23;;;9.40;;
20525;SDS011;10421;49.142;9.232;2023-03-01T01:33:54;17.20;;;9.03;;
20525;SDS011;10421;49.142;9.232;2023-03-01T01:36:22;18.20;;;9.87;;
20525;SDS011;10421;49.142;9.232;2023-03-01T01:38:49;17.97;;;9.97;;
20525;SDS011;10421;49.142;9.232;2023-03-01T01:41:17;17.10;;;9.53;;
20525;SDS011;10421;49.142;9.232;2023-03-01T01:43:45;21.40;;;10.60;;
20525;SDS011;10421;49.142;9.232;2023-03-01T01:46:16;22.63;;;10.30;;
20525;SDS011;10421;49.142;9.232;2023-03-01T01:48:52;18.63;;;9.77;;
20525;SDS011;10421;49.142;9.232;2023-03-01T01:51:23;16.67;;;9.30;;
20525;SDS011;10421;49.142;9.232;2023-03-01T01:54:03;19.93;;;10.17;;
20525;SDS011;10421;49.142;9.232;2023-03-01T01:56:36;21.80;;;10.20;;
20525;SDS011;10421;49.142;9.232;2023-03-01T01:59:06;21.50;;;9.70;;
20525;SDS011;10421;49.142;9.232;2023-03-01T02:01:33;26.13;;;13.20;;
20525;SDS011;10421;49.142;9.232;2023-03-01T02:04:00;29.03;;;14.20;;
20525;SDS011;10421;49.142;9.232;2023-03-01T02:06:27;25.53;;;11.90;;
20525;SDS011;10421;49.142;9.232;2023-03-01T02:08:59;22.97;;;10.90;;
20525;SDS011;10421;49.142;9.232;2023-03-01T02:11:31;23.17;;;10.57;;
20525;SDS011;10421;49.142;9.232;2023-03-01T02:14:00;19.17;;;10.60;;
20525;SDS011;10421;49.142;9.232;2023-03-01T02:16:26;23.27;;;10.10;;
20525;SDS011;10421;49.142;9.232;2023-03-01T02:18:54;24.40;;;10.80;;
20525;SDS011;10421;49.142;9.232;2023-03-01T02:21:25;22.97;;;10.93;;
20525;SDS011;10421;49.142;9.232;2023-03-01T02:24:02;19.80;;;9.93;;
20525;SDS011;10421;49.142;9.232;2023-03-01T02:26:39;21.43;;;9.63;;
20525;SDS011;10421;49.142;9.232;2023-03-01T02:29:12;22.80;;;10.17;;
20525;SDS011;10421;49.142;9.232;2023-03-01T02:31:39;20.00;;;10.40;;
20525;SDS011;10421;49.142;9.232;2023-03-01T02:34:08;22.70;;;10.63;;
20525;SDS011;10421;49.142;9.232;2023-03-01T02:36:37;18.13;;;9.50;;
20525;SDS011;10421;49.142;9.232;2023-03-01T02:39:07;21.97;;;10.00;;
20525;SDS011;10421;49.142;9.232;2023-03-01T02:41:39;26.67;;;10.07;;
20525;SDS011;10421;49.142;9.232;2023-03-01T02:44:09;20.33;;;10.30;;
20525;SDS011;10421;49.142;9.232;2023-03-01T02:46:42;17.80;;;9.43;;
20525;SDS011;10421;49.142;9.232;2023-03-01T02:49:21;21.03;;;10.57;;
20525;SDS011;10421;49.142;9.232;2023-03-01T02:52:04;31.70;;;10.70;;
20525;SDS011;10421;49.142;9.232;2023-03-01T02:54:39;21.57;;;10.37;;
20525;SDS011;10421;49.142;9.232;2023-03-01T02:57:09;24.40;;;11.70;;
20525;SDS011;10421;49.142;9.232;2023-03-01T02:59:36;22.83;;;10.87;;
20525;SDS011;10421;49.142;9.232;2023-03-01T03:02:06;28.00;;;10.73;;
20525;SDS011;10421;49.142;9.232;2023-03-01T03:04:33;17.40;;;10.30;;
20525;SDS011;10421;49.142;9.232;2023-03-01T03:07:00;24.80;;;11.13;;
20525;SDS011;10421;49.142;9.232;2023-03-01T03:09:26;24.43;;;10.83;;
20525;SDS011;10421;49.142;9.232;2023-03-01T03:11:53;21.10;;;9.97;;
20525;SDS011;10421;49.142;9.232;2023-03-01T03:14:20;25.03;;;10.80;;
20525;SDS011;10421;49.142;9.232;2023-03-01T03:16:47;22.50;;;10.63;;
20525;SDS011;10421;49.142;9.232;2023-03-01T03:19:17;28.30;;;11.20;;
20525;SDS011;10421;49.142;9.232;2023-03-01T03:21:45;23.93;;;11.43;;
20525;SDS011;10421;49.142;9.232;2023-03-01T03:24:12;19.87;;;9.83;;
20525;SDS011;10421;49.142;9.232;2023-03-01T03:26:39;23.23;;;10.33;;
20525;SDS011;10421;49.142;9.232;2023-03-01T03:29:06;17.57;;;9.60;;
20525;SDS011;10421;49.142;9.232;2023-03-01T03:31:32;20.07;;;10.27;;
20525;SDS011;10421;49.142;9.232;2023-03-01T03:34:00;27.87;;;12.03;;
20525;SDS011;10421;49.142;9.232;2023-03-01T03:36:28;24.57;;;11.37;;
20525;SDS011;10421;49.142;9.232;2023-03-01T03:38:54;24.80;;;11.73;;
20525;SDS011;10421;49.142;9.232;2023-03-01T03:41:21;20.13;;;10.00;;
20525;SDS011;10421;49.142;9.232;2023-03-01T03:43:48;21.77;;;10.53;;
20525;SDS011;10421;49.142;9.232;2023-03-01T03:46:14;22.77;;;10.50;;
20525;SDS011;10421;49.142;9.232;2023-03-01T03:48:42;25.07;;;11.47;;
20525;SDS011;10421;49.142;9.232;2023-03-01T03:51:10;21.50;;;10.60;;
20525;SDS011;10421;49.142;9.232;2023-03-01T03:53:39;22.30;;;11.43;;
20525;SDS011;10421;49.142;9.232;2023-03-01T03:56:07;24.57;;;11.57;;
20525;SDS011;10421;49.142;9.232;2023-03-01T03:58:34;20.70;;;10.90;;
20525;SDS011;10421;49.142;9.232;2023-03-01T04:01:01;21.67;;;10.77;;
20525;SDS011;10421;49.142;9.232;2023-03-01T04:03:30;21.07;;;10.80;;
20525;SDS011;10421;49.142;9.232;2023-03-01T04:05:58;20.50;;;9.83;;
20525;SDS011;10421;49.142;9.232;2023-03-01T04:08:26;24.43;;;11.37;;
20525;SDS011;10421;49.142;9.232;2023-03-01T04:10:58;19.33;;;10.50;;
20525;SDS011;10421;49.142;9.232;2023-03-01T04:13:46;21.23;;;10.70;;
20525;SDS011;10421;49.142;9.232;2023-03-01T04:16:13;25.30;;;10.87;;
20525;SDS011;10421;49.142;9.232;2023-03-01T04:18:40;23.07;;;10.90;;
20525;SDS011;10421;49.142;9.232;2023-03-01T04:21:07;21.53;;;10.83;;
20525;SDS011;10421;49.142;9.232;2023-03-01T04:23:33;20.63;;;10.50;;
20525;SDS011;10421;49.142;9.232;2023-03-01T04:26:02;18.07;;;9.90;;
20525;SDS011;10421;49.142;9.232;2023-03-01T04:28:30;22.13;;;11.33;;
20525;SDS011;10421;49.142;9.232;2023-03-01T04:31:01;25.40;;;10.93;;
20525;SDS011;10421;49.142;9.232;2023-03-01T04:33:37;23.33;;;11.40;;
20525;SDS011;10421;49.142;9.232;2023-03-01T04:36:05;21.40;;;10.33;;
20525;SDS011;10421;49.142;9.232;2023-03-01T04:38:33;23.90;;;11.30;;
20525;SDS011;10421;49.142;9.232;2023-03-01T04:41:03;25.83;;;11.73;;
20525;SDS011;10421;49.142;9.232;2023-03-01T04:43:30;21.83;;;10.30;;
20525;SDS011;10421;49.142;9.232;2023-03-01T04:45:59;19.73;;;10.83;;
20525;SDS011;10421;49.142;9.232;2023-03-01T04:48:27;27.03;;;10.93;;
20525;SDS011;10421;49.142;9.232;2023-03-01T04:50:54;20.73;;;10.23;;
20525;SDS011;10421;49.142;9.232;2023-03-01T04:53:21;22.77;;;10.70;;
20525;SDS011;10421;49.142;9.232;2023-03-01T04:55:47;22.67;;;10.80;;
20525;SDS011;10421;49.142;9.232;2023-03-01T04:58:15;25.53;;;10.40;;
20525;SDS011;10421;49.142;9.232;2023-03-01T05:00:42;24.27;;;11.63;;
20525;SDS011;10421;49.142;9.232;2023-03-01T05:03:09;27.90;;;10.73;;
20525;SDS011;10421;49.142;9.232;2023-03-01T05:05:36;26.10;;;11.20;;
20525;SDS011;10421;49.142;9.232;2023-03-01T05:08:04;21.30;;;9.57;;
20525;SDS011;10421;49.142;9.232;2023-03-01T05:10:34;27.73;;;12.40;;
20525;SDS011;10421;49.142;9.232;2023-03-01T05:13:03;26.80;;;11.27;;
20525;SDS011;10421;49.142;9.232;2023-03-01T05:15:32;22.87;;;11.43;;
20525;SDS011;10421;49.142;9.232;2023-03-01T05:18:01;21.50;;;10.50;;
20525;SDS011;10421;49.142;9.232;2023-03-01T05:20:28;26.70;;;11.00;;
20525;SDS011;10421;49.142;9.232;2023-03-01T05:22:56;28.20;;;12.23;;
20525;SDS011;10421;49.142;9.232;2023-03-01T05:25:24;21.67;;;9.77;;
20525;SDS011;10421;49.142;9.232;2023-03-01T05:27:51;26.40;;;10.30;;
20525;SDS011;10421;49.142;9.232;2023-03-01T05:30:18;26.23;;;10.83;;
20525;SDS011;10421;49.142;9.232;2023-03-01T05:32:48;27.07;;;11.07;;
20525;SDS011;10421;49.142;9.232;2023-03-01T05:35:20;22.43;;;9.90;;
20525;SDS011;10421;49.142;9.232;2023-03-01T05:37:48;27.07;;;11.33;;
20525;SDS011;10421;49.142;9.232;2023-03-01T05:40:17;22.27;;;10.03;;
20525;SDS011;10421;49.142;9.232;2023-03-01T05:42:45;24.43;;;11.70;;
20525;SDS011;10421;49.142;9.232;2023-03-01T05:45:14;24.17;;;11.87;;
20525;SDS011;10421;49.142;9.232;2023-03-01T05:47:43;21.80;;;11.23;;
20525;SDS011;10421;49.142;9.232;2023-03-01T05:50:13;26.97;;;11.50;;
20525;SDS011;10421;49.142;9.232;2023-03-01T05:52:43;27.87;;;11.70;;
20525;SDS011;10421;49.142;9.232;2023-03-01T05:55:11;27.63;;;12.60;;
20525;SDS011;10421;49.142;9.232;2023-03-01T05:57:38;23.80;;;12.07;;
20525;SDS011;10421;49.142;9.232;2023-03-01T06:00:06;26.23;;;12.20;;
20525;SDS011;10421;49.142;9.232;2023-03-01T06:02:33;25.70;;;12.07;;
20525;SDS011;10421;49.142;9.232;2023-03-01T06:05:00;25.57;;;12.17;;
20525;SDS011;10421;49.142;9.232;2023-03-01T06:07:28;24.17;;;11.80;;
20525;SDS011;10421;49.142;9.232;2023-03-01T06:09:55;23.43;;;10.83;;
20525;SDS011;10421;49.142;9.232;2023-03-01T06:12:22;25.97;;;11.87;;
20525;SDS011;10421;49.142;9.232;2023-03-01T06:14:48;24.00;;;11.30;;
20525;SDS011;10421;49.142;9.232;2023-03-01T06:17:15;24.50;;;11.40;;
20525;SDS011;10421;49.142;9.232;2023-03-01T06:19:42;27.10;;;12.30;;
20525;SDS011;10421;49.142;9.232;2023-03-01T06:22:09;24.97;;;11.27;;
20525;SDS011;10421;49.142;9.232;2023-03-01T06:24:37;23.03;;;10.90;;
20525;SDS011;10421;49.142;9.232;2023-03-01T06:27:03;25.83;;;11.37;;
20525;SDS011;10421;49.142;9.232;2023-03-01T06:29:30;26.93;;;11.97;;
20525;SDS011;10421;49.142;9.232;2023-03-01T06:31:57;20.80;;;10.73;;
20525;SDS011;10421;49.142;9.232;2023-03-01T06:34:24;23.20;;;10.90;;
20525;SDS011;10421;49.142;9.232;2023-03-01T06:36:50;23.97;;;11.70;;
20525;SDS011;10421;49.142;9.232;2023-03-01T06:39:17;31.63;;;12.83;;
20525;SDS011;10421;49.142;9.232;2023-03-01T06:41:45;28.63;;;12.60;;
20525;SDS011;10421;49.142;9.232;2023-03-01T06:44:12;30.07;;;12.27;;
20525;SDS011;10421;49.142;9.232;2023-03-01T06:46:38;24.70;;;12.13;;
20525;SDS011;10421;49.142;9.232;2023-03-01T06:49:06;28.30;;;13.87;;
20525;SDS011;10421;49.142;9.232;2023-03-01T06:51:34;30.90;;;12.60;;
20525;SDS011;10421;49.142;9.232;2023-03-01T06:54:02;24.47;;;11.90;;
20525;SDS011;10421;49.142;9.232;2023-03-01T06:56:29;20.20;;;11.07;;
20525;SDS011;10421;49.142;9.232;2023-03-01T06:58:57;29.43;;;13.37;;
20525;SDS011;10421;49.142;9.232;2023-03-01T07:01:23;31.63;;;12.50;;
20525;SDS011;10421;49.142;9.232;2023-03-01T07:03:50;25.97;;;11.97;;
20525;SDS011;10421;49.142;9.232;2023-03-01T07:06:17;26.80;;;12.40;;
20525;SDS011;10421;49.142;9.232;2023-03-01T07:08:44;24.90;;;11.60;;
20525;SDS011;10421;49.142;9.232;2023-03-01T07:11:11;18.37;;;10.80;;
20525;SDS011;10421;49.142;9.232;2023-03-01T07:13:38;25.53;;;12.33;;
20525;SDS011;10421;49.142;9.232;2023-03-01T07:16:07;26.97;;;12.53;;
20525;SDS011;10421;49.142;9.232;2023-03-01T07:18:33;25.20;;;12.00;;
20525;SDS011;10421;49.142;9.232;2023-03-01T07:21:03;21.40;;;11.53;;
20525;SDS011;10421;49.142;9.232;2023-03-01T07:23:30;24.73;;;12.03;;
20525;SDS011;10421;49.142;9.232;2023-03-01T07:25:57;26.33;;;12.77;;
20525;SDS011;10421;49.142;9.232;2023-03-01T07:28:25;27.50;;;11.50;;
20525;SDS011;10421;49.142;9.232;2023-03-01T07:30:52;26.70;;;11.67;;
20525;SDS011;10421;49.142;9.232;2023-03-01T07:33:21;24.70;;;11.43;;
20525;SDS011;10421;49.142;9.232;2023-03-01T07:35:47;26.87;;;12.90;;
20525;SDS011;10421;49.142;9.232;2023-03-01T07:38:14;23.10;;;11.83;;
20525;SDS011;10421;49.142;9.232;2023-03-01T07:40:41;24.57;;;12.70;;
20525;SDS011;10421;49.142;9.232;2023-03-01T07:43:07;28.23;;;11.93;;
20525;SDS011;10421;49.142;9.232;2023-03-01T07:45:34;26.17;;;11.83;;
20525;SDS011;10421;49.142;9.232;2023-03-01T07:48:01;25.33;;;12.70;;
20525;SDS011;10421;49.142;9.232;2023-03-01T07:50:29;26.90;;;11.87;;
20525;SDS011;10421;49.142;9.232;2023-03-01T07:52:56;25.10;;;12.27;;
20525;SDS011;10421;49.142;9.232;2023-03-01T07:55:22;23.40;;;11.47;;
20525;SDS011;10421;49.142;9.232;2023-03-01T07:57:49;22.80;;;12.30;;
20525;SDS011;10421;49.142;9.232;2023-03-01T08:00:16;23.03;;;12.50;;
20525;SDS011;10421;49.142;9.232;2023-03-01T08:02:43;22.17;;;11.43;;
20525;SDS011;10421;49.142;9.232;2023-03-01T08:05:10;27.83;;;12.07;;
20525;SDS011;10421;49.142;9.232;2023-03-01T08:07:38;30.07;;;12.07;;
20525;SDS011;10421;49.142;9.232;2023-03-01T08:10:05;24.40;;;11.90;;
20525;SDS011;10421;49.142;9.232;2023-03-01T08:12:32;21.13;;;10.63;;
20525;SDS011;10421;49.142;9.232;2023-03-01T08:14:59;23.73;;;11.57;;
20525;SDS011;10421;49.142;9.232;2023-03-01T08:17:26;40.87;;;12.73;;
20525;SDS011;10421;49.142;9.232;2023-03-01T08:19:53;23.37;;;11.00;;
20525;SDS011;10421;49.142;9.232;2023-03-01T08:22:19;26.10;;;11.73;;
20525;SDS011;10421;49.142;9.232;2023-03-01T08:24:47;30.70;;;13.53;;
20525;SDS011;10421;49.142;9.232;2023-03-01T08:27:14;25.97;;;12.90;;
20525;SDS011;10421;49.142;9.232;2023-03-01T08:29:41;25.57;;;13.30;;
20525;SDS011;10421;49.142;9.232;2023-03-01T08:32:08;23.63;;;12.70;;
20525;SDS011;10421;49.142;9.232;2023-03-01T08:34:35;28.40;;;13.03;;
20525;SDS011;10421;49.142;9.232;2023-03-01T08:37:01;25.00;;;12.90;;
20525;SDS011;10421;49.142;9.232;2023-03-01T08:39:28;29.50;;;12.13;;
20525;SDS011;10421;49.142;9.232;2023-03-01T08:41:57;27.63;;;12.80;;
20525;SDS011;10421;49.142;9.232;2023-03-01T08:44:24;29.70;;;13.60;;
20525;SDS011;10421;49.142;9.232;2023-03-01T08:46:50;26.70;;;12.60;;
20525;SDS011;10421;49.142;9.232;2023-03-01T08:49:18;25.50;;;11.43;;
20525;SDS011;10421;49.142;9.232;2023-03-01T08:51:46;32.50;;;14.07;;
20525;SDS011;10421;49.142;9.232;2023-03-01T08:54:14;24.27;;;11.93;;
20525;SDS011;10421;49.142;9.232;2023-03-01T08:56:43;22.20;;;12.50;;
20525;SDS011;10421;49.142;9.232;2023-03-01T08:59:11;24.40;;;12.93;;
20525;SDS011;10421;49.142;9.232;2023-03-01T09:01:39;23.13;;;11.30;;
20525;SDS011;10421;49.142;9.232;2023-03-01T09:04:08;23.73;;;11.90;;
20525;SDS011;10421;49.142;9.232;2023-03-01T09:06:41;26.10;;;13.10;;
20525;SDS011;10421;49.142;9.232;2023-03-01T09:09:10;27.77;;;12.67;;
20525;SDS011;10421;49.142;9.232;2023-03-01T09:11:40;24.90;;;13.60;;
20525;SDS011;10421;49.142;9.232;2023-03-01T09:14:08;23.40;;;12.27;;
20525;SDS011;10421;49.142;9.232;2023-03-01T09:16:36;25.93;;;13.87;;
20525;SDS011;10421;49.142;9.232;2023-03-01T09:19:03;25.87;;;13.20;;
20525;SDS011;10421;49.142;9.232;2023-03-01T09:21:30;25.50;;;13.30;;
20525;SDS011;10421;49.142;9.232;2023-03-01T09:23:57;26.00;;;12.87;;
20525;SDS011;10421;49.142;9.232;2023-03-01T09:26:24;24.13;;;12.30;;
20525;SDS011;10421;49.142;9.232;2023-03-01T09:28:52;27.73;;;14.00;;
20525;SDS011;10421;49.142;9.232;2023-03-01T09:31:21;30.67;;;13.13;;
20525;SDS011;10421;49.142;9.232;2023-03-01T09:33:51;30.07;;;15.10;;
20525;SDS011;10421;49.142;9.232;2023-03-01T09:36:19;28.33;;;13.63;;
20525;SDS011;10421;49.142;9.232;2023-03-01T09:38:47;28.30;;;14.60;;
20525;SDS011;10421;49.142;9.232;2023-03-01T09:41:19;23.40;;;12.90;;
20525;SDS011;10421;49.142;9.232;2023-03-01T09:43:57;26.37;;;13.00;;
20525;SDS011;10421;49.142;9.232;2023-03-01T09:46:29;29.03;;;14.60;;
20525;SDS011;10421;49.142;9.232;2023-03-01T09:49:05;22.97;;;13.67;;
20525;SDS011;10421;49.142;9.232;2023-03-01T09:51:38;27.97;;;14.07;;
20525;SDS011;10421;49.142;9.232;2023-03-01T09:54:05;28.17;;;15.50;;
20525;SDS011;10421;49.142;9.232;2023-03-01T09:56:34;28.03;;;14.10;;
20525;SDS011;10421;49.142;9.232;2023-03-01T09:59:08;28.80;;;15.17;;
20525;SDS011;10421;49.142;9.232;2023-03-01T10:01:46;26.70;;;13.23;;
20525;SDS011;10421;49.142;9.232;2023-03-01T10:04:26;24.33;;;12.73;;
20525;SDS011;10421;49.142;9.232;2023-03-01T10:07:02;24.70;;;14.30;;
20525;SDS011;10421;49.142;9.232;2023-03-01T10:09:39;22.60;;;13.03;;
20525;SDS011;10421;49.142;9.232;2023-03-01T10:12:09;28.20;;;14.00;;
20525;SDS011;10421;49.142;9.232;2023-03-01T10:14:39;28.27;;;14.43;;
20525;SDS011;10421;49.142;9.232;2023-03-01T10:17:17;25.73;;;13.67;;
20525;SDS011;10421;49.142;9.232;2023-03-01T10:19:52;28.00;;;13.57;;
20525;SDS011;10421;49.142;9.232;2023-03-01T10:22:21;31.30;;;15.20;;
20525;SDS011;10421;49.142;9.232;2023-03-01T10:24:53;25.37;;;13.30;;
20525;SDS011;10421;49.142;9.232;2023-03-01T10:27:22;28.80;;;14.50;;
20525;SDS011;10421;49.142;9.232;2023-03-01T10:29:53;27.30;;;13.70;;
20525;SDS011;10421;49.142;9.232;2023-03-01T10:32:25;24.50;;;14.10;;
20525;SDS011;10421;49.142;9.232;2023-03-01T10:34:54;21.77;;;12.80;;
20525;SDS011;10421;49.142;9.232;2023-03-01T10:37:22;27.87;;;14.43;;
20525;SDS011;10421;49.142;9.232;2023-03-01T10:39:56;28.87;;;16.10;;
20525;SDS011;10421;49.142;9.232;2023-03-01T10:42:28;26.30;;;14.10;;
20525;SDS011;10421;49.142;9.232;2023-03-01T10:44:56;23.40;;;13.43;;
20525;SDS011;10421;49.142;9.232;2023-03-01T10:47:24;26.57;;;14.20;;
20525;SDS011;10421;49.142;9.232;2023-03-01T10:49:55;27.97;;;14.57;;
20525;SDS011;10421;49.142;9.232;2023-03-01T10:52:24;25.50;;;13.27;;
20525;SDS011;10421;49.142;9.232;2023-03-01T10:54:54;21.30;;;13.37;;
20525;SDS011;10421;49.142;9.232;2023-03-01T10:57:27;26.67;;;13.60;;
20525;SDS011;10421;49.142;9.232;2023-03-01T11:00:00;29.13;;;13.50;;
20525;SDS011;10421;49.142;9.232;2023-03-01T11:02:41;24.17;;;13.60;;
20525;SDS011;10421;49.142;9.232;2023-03-01T11:05:16;24.60;;;13.80;;
20525;SDS011;10421;49.142;9.232;2023-03-01T11:07:49;21.67;;;13.03;;
20525;SDS011;10421;49.142;9.232;2023-03-01T11:10:18;22.20;;;13.60;;
20525;SDS011;10421;49.142;9.232;2023-03-01T11:12:47;25.40;;;13.80;;
20525;SDS011;10421;49.142;9.232;2023-03-01T11:15:21;23.00;;;13.00;;
20525;SDS011;10421;49.142;9.232;2023-03-01T11:17:51;19.10;;;11.93;;
20525;SDS011;10421;49.142;9.232;2023-03-01T11:20:23;25.70;;;13.83;;
20525;SDS011;10421;49.142;9.232;2023-03-01T11:22:54;25.60;;;13.10;;
20525;SDS011;10421;49.142;9.232;2023-03-01T11:25:24;21.90;;;12.67;;
20525;SDS011;10421;49.142;9.232;2023-03-01T11:27:53;24.33;;;13.27;;
20525;SDS011;10421;49.142;9.232;2023-03-01T11:30:21;27.37;;;13.93;;
20525;SDS011;10421;49.142;9.232;2023-03-01T11:32:52;24.93;;;13.60;;
20525;SDS011;10421;49.142;9.232;2023-03-01T11:35:28;22.80;;;12.83;;
20525;SDS011;10421;49.142;9.232;2023-03-01T11:38:01;29.00;;;15.00;;
20525;SDS011;10421;49.142;9.232;2023-03-01T11:40:37;25.40;;;14.20;;
20525;SDS011;10421;49.142;9.232;2023-03-01T11:43:12;28.80;;;15.37;;
20525;SDS011;10421;49.142;9.232;2023-03-01T11:45:48;23.43;;;13.40;;
20525;SDS011;10421;49.142;9.232;2023-03-01T11:48:48;24.90;;;14.47;;
20525;SDS011;10421;49.142;9.232;2023-03-01T11:51:30;27.17;;;14.83;;
20525;SDS011;10421;49.142;9.232;2023-03-01T11:54:06;22.10;;;12.83;;
20525;SDS011;10421;49.142;9.232;2023-03-01T11:56:41;24.63;;;14.60;;
20525;SDS011;10421;49.142;9.232;2023-03-01T11:59:26;24.33;;;13.70;;
20525;SDS011;10421;49.142;9.232;2023-03-01T12:02:24;26.73;;;13.27;;
20525;SDS011;10421;49.142;9.232;2023-03-01T12:05:20;26.90;;;14.70;;
20525;SDS011;10421;49.142;9.232;2023-03-01T12:08:14;25.47;;;14.43;;
20525;SDS011;10421;49.142;9.232;2023-03-01T12:10:48;26.77;;;14.73;;
20525;SDS011;10421;49.142;9.232;2023-03-01T12:13:30;24.80;;;14.60;;
20525;SDS011;10421;49.142;9.232;2023-03-01T12:16:22;25.20;;;14.20;;
20525;SDS011;10421;49.142;9.232;2023-03-01T12:21:49;28.20;;;15.77;;
20525;SDS011;10421;49.142;9.232;2023-03-01T12:24:43;21.90;;;12.80;;
20525;SDS011;10421;49.142;9.232;2023-03-01T12:27:21;24.67;;;14.30;;
20525;SDS011;10421;49.142;9.232;2023-03-01T12:30:03;20.70;;;13.07;;
20525;SDS011;10421;49.142;9.232;2023-03-01T12:32:45;28.97;;;14.77;;
20525;SDS011;10421;49.142;9.232;2023-03-01T12:38:32;24.60;;;14.20;;
20525;SDS011;10421;49.142;9.232;2023-03-01T12:41:08;24.47;;;13.23;;
20525;SDS011;10421;49.142;9.232;2023-03-01T12:43:48;28.30;;;14.57;;
20525;SDS011;10421;49.142;9.232;2023-03-01T12:46:27;27.00;;;14.73;;
20525;SDS011;10421;49.142;9.232;2023-03-01T12:49:08;20.93;;;12.73;;
20525;SDS011;10421;49.142;9.232;2023-03-01T12:51:37;26.70;;;13.73;;
20525;SDS011;10421;49.142;9.232;2023-03-01T12:54:07;21.40;;;13.13;;
20525;SDS011;10421;49.142;9.232;2023-03-01T12:56:42;22.90;;;12.87;;
20525;SDS011;10421;49.142;9.232;2023-03-01T12:59:17;19.70;;;12.47;;
20525;SDS011;10421;49.142;9.232;2023-03-01T13:01:49;26.20;;;14.20;;
20525;SDS011;10421;49.142;9.232;2023-03-01T13:04:31;24.40;;;14.10;;
20525;SDS011;10421;49.142;9.232;2023-03-01T13:07:11;24.83;;;13.73;;
20525;SDS011;10421;49.142;9.232;2023-03-01T13:09:48;27.87;;;12.77;;
20525;SDS011;10421;49.142;9.232;2023-03-01T13:12:43;23.23;;;13.10;;
20525;SDS011;10421;49.142;9.232;2023-03-01T13:15:25;24.80;;;13.37;;
20525;SDS011;10421;49.142;9.232;2023-03-01T13:17:53;22.47;;;12.70;;
20525;SDS011;10421;49.142;9.232;2023-03-01T13:20:23;23.73;;;13.73;;
20525;SDS011;10421;49.142;9.232;2023-03-01T13:23:00;24.90;;;13.90;;
20525;SDS011;10421;49.142;9.232;2023-03-01T13:25:29;21.97;;;12.20;;
20525;SDS011;10421;49.142;9.232;2023-03-01T13:31:03;24.43;;;13.23;;
20525;SDS011;10421;49.142;9.232;2023-03-01T13:33:42;22.00;;;12.90;;
20525;SDS011;10421;49.142;9.232;2023-03-01T13:36:11;27.30;;;14.60;;
20525;SDS011;10421;49.142;9.232;2023-03-01T13:39:01;24.33;;;13.90;;
20525;SDS011;10421;49.142;9.232;2023-03-01T13:41:48;21.50;;;12.60;;
20525;SDS011;10421;49.142;9.232;2023-03-01T13:44:20;24.17;;;14.17;;
20525;SDS011;10421;49.142;9.232;2023-03-01T13:46:51;25.57;;;14.30;;
20525;SDS011;10421;49.142;9.232;2023-03-01T13:49:19;22.33;;;12.37;;
20525;SDS011;10421;49.142;9.232;2023-03-01T13:51:49;21.57;;;13.20;;
20525;SDS011;10421;49.142;9.232;2023-03-01T13:54:19;25.40;;;13.83;;
20525;SDS011;10421;49.142;9.232;2023-03-01T13:56:52;25.30;;;13.63;;
20525;SDS011;10421;49.142;9.232;2023-03-01T13:59:20;24.30;;;12.20;;
20525;SDS011;10421;49.142;9.232;2023-03-01T14:01:52;26.67;;;13.50;;
20525;SDS011;10421;49.142;9.232;2023-03-01T14:04:21;23.97;;;13.30;;
20525;SDS011;10421;49.142;9.232;2023-03-01T14:06:50;25.50;;;13.73;;
20525;SDS011;10421;49.142;9.232;2023-03-01T14:09:19;26.47;;;13.50;;
20525;SDS011;10421;49.142;9.232;2023-03-01T14:12:06;22.70;;;13.07;;
20525;SDS011;10421;49.142;9.232;2023-03-01T14:14:55;20.77;;;12.13;;
20525;SDS011;10421;49.142;9.232;2023-03-01T14:17:32;23.83;;;12.80;;
20525;SDS011;10421;49.142;9.232;2023-03-01T14:20:09;23.80;;;13.03;;
20525;SDS011;10421;49.142;9.232;2023-03-01T14:22:40;22.67;;;12.63;;
20525;SDS011;10421;49.142;9.232;2023-03-01T14:25:19;26.80;;;13.67;;
20525;SDS011;10421;49.142;9.232;2023-03-01T14:27:59;22.67;;;12.40;;
20525;SDS011;10421;49.142;9.232;2023-03-01T14:30:31;20.70;;;12.40;;
20525;SDS011;10421;49.142;9.232;2023-03-01T14:33:01;25.43;;;14.00;;
20525;SDS011;10421;49.142;9.232;2023-03-01T14:35:31;24.70;;;13.90;;
20525;SDS011;10421;49.142;9.232;2023-03-01T14:37:59;20.73;;;11.70;;
20525;SDS011;10421;49.142;9.232;2023-03-01T14:40:28;23.97;;;12.53;;
20525;SDS011;10421;49.142;9.232;2023-03-01T14:42:57;28.93;;;13.07;;
20525;SDS011;10421;49.142;9.232;2023-03-01T14:45:27;23.03;;;13.00;;
20525;SDS011;10421;49.142;9.232;2023-03-01T14:47:55;22.90;;;13.63;;
20525;SDS011;10421;49.142;9.232;2023-03-01T14:50:27;25.30;;;12.80;;